sensor_id;sensor_type;location;lat;lon;timestamp;P1;durP1;ratioP1;P2;durP2;ratioP2
67675;SDS011;54456;48.436;10.028;2023-04-15T03:16:06;10.32;;;3.65;;
67675;SDS011;54456;48.436;10.028;2023-04-15T03:17:37;12.30;;;3.65;;
67675;SDS011;54456;48.436;10.028;2023-04-15T03:19:07;9.87;;;3.20;;
67675;SDS011;54456;48.436;10.028;2023-04-15T03:20:37;12.40;;;3.37;;
67675;SDS011;54456;48.436;10.028;2023-04-15T03:22:07;11.57;;;3.63;;
67675;SDS011;54456;48.436;10.028;2023-04-15T03:23:38;11.23;;;3.80;;
67675;SDS011;54456;48.436;10.028;2023-04-15T03:25:08;9.73;;;3.90;;
67675;SDS011;54456;48.436;10.028;2023-04-15T03:26:38;10.73;;;3.53;;
67675;SDS011;54456;48.436;10.028;2023-04-15T03:28:09;12.90;;;4.22;;
67675;SDS011;54456;48.436;10.028;2023-04-15T03:29:39;9.07;;;3.80;;
67675;SDS011;54456;48.436;10.028;2023-04-15T03:31:09;11.00;;;4.20;;
67675;SDS011;54456;48.436;10.028;2023-04-15T03:32:39;9.10;;;3.47;;
67675;SDS011;54456;48.436;10.028;2023-04-15T03:34:10;9.60;;;3.80;;
67675;SDS011;54456;48.436;10.028;2023-04-15T03:35:40;11.73;;;3.77;;
67675;SDS011;54456;48.436;10.028;2023-04-15T03:37:10;9.33;;;3.63;;
67675;SDS011;54456;48.436;10.028;2023-04-15T03:38:41;10.93;;;3.72;;
67675;SDS011;54456;48.436;10.028;2023-04-15T03:40:11;10.45;;;3.58;;
67675;SDS011;54456;48.436;10.028;2023-04-15T03:41:41;9.10;;;3.83;;
67675;SDS011;54456;48.436;10.028;2023-04-15T03:43:11;10.00;;;3.70;;
67675;SDS011;54456;48.436;10.028;2023-04-15T03:44:42;11.70;;;3.83;;
67675;SDS011;54456;48.436;10.028;2023-04-15T03:46:12;12.23;;;4.23;;
67675;SDS011;54456;48.436;10.028;2023-04-15T03:47:42;9.70;;;3.87;;
67675;SDS011;54456;48.436;10.028;2023-04-15T03:49:12;16.63;;;3.70;;
67675;SDS011;54456;48.436;10.028;2023-04-15T03:50:43;8.80;;;3.27;;
67675;SDS011;54456;48.436;10.028;2023-04-15T03:52:13;9.07;;;3.67;;
67675;SDS011;54456;48.436;10.028;2023-04-15T03:53:43;11.03;;;3.90;;
67675;SDS011;54456;48.436;10.028;2023-04-15T03:55:13;8.50;;;3.63;;
67675;SDS011;54456;48.436;10.028;2023-04-15T03:56:44;9.23;;;3.80;;
67675;SDS011;54456;48.436;10.028;2023-04-15T03:58:14;9.17;;;3.57;;
67675;SDS011;54456;48.436;10.028;2023-04-15T03:59:45;8.73;;;3.72;;
67675;SDS011;54456;48.436;10.028;2023-04-15T04:01:15;10.10;;;4.20;;
67675;SDS011;54456;48.436;10.028;2023-04-15T04:02:45;10.87;;;3.90;;
67675;SDS011;54456;48.436;10.028;2023-04-15T04:04:15;10.10;;;3.57;;
67675;SDS011;54456;48.436;10.028;2023-04-15T04:05:46;11.83;;;4.30;;
67675;SDS011;54456;48.436;10.028;2023-04-15T04:07:16;9.97;;;3.90;;
67675;SDS011;54456;48.436;10.028;2023-04-15T04:08:47;11.00;;;4.45;;
67675;SDS011;54456;48.436;10.028;2023-04-15T04:10:17;12.30;;;4.10;;
67675;SDS011;54456;48.436;10.028;2023-04-15T04:11:47;12.20;;;4.50;;
67675;SDS011;54456;48.436;10.028;2023-04-15T04:13:18;9.77;;;3.83;;
67675;SDS011;54456;48.436;10.028;2023-04-15T04:14:48;10.93;;;3.50;;
67675;SDS011;54456;48.436;10.028;2023-04-15T04:16:18;8.10;;;3.20;;
67675;SDS011;54456;48.436;10.028;2023-04-15T04:17:48;12.27;;;4.28;;
67675;SDS011;54456;48.436;10.028;2023-04-15T04:19:19;11.60;;;4.00;;
67675;SDS011;54456;48.436;10.028;2023-04-15T04:20:49;8.75;;;3.00;;
67675;SDS011;54456;48.436;10.028;2023-04-15T04:22:23;10.73;;;3.90;;
67675;SDS011;54456;48.436;10.028;2023-04-15T04:23:53;8.52;;;3.55;;
67675;SDS011;54456;48.436;10.028;2023-04-15T04:25:24;11.50;;;4.20;;
67675;SDS011;54456;48.436;10.028;2023-04-15T04:26:54;10.18;;;3.90;;
67675;SDS011;54456;48.436;10.028;2023-04-15T04:28:26;9.20;;;3.60;;
67675;SDS011;54456;48.436;10.028;2023-04-15T04:29:56;9.80;;;3.63;;
67675;SDS011;54456;48.436;10.028;2023-04-15T04:31:26;10.73;;;4.07;;
67675;SDS011;54456;48.436;10.028;2023-04-15T04:32:56;11.10;;;4.10;;
67675;SDS011;54456;48.436;10.028;2023-04-15T04:34:27;9.17;;;3.70;;
67675;SDS011;54456;48.436;10.028;2023-04-15T04:35:57;11.37;;;4.40;;
67675;SDS011;54456;48.436;10.028;2023-04-15T04:37:27;12.23;;;4.30;;
67675;SDS011;54456;48.436;10.028;2023-04-15T04:38:57;10.33;;;4.13;;
67675;SDS011;54456;48.436;10.028;2023-04-15T04:40:27;11.23;;;4.40;;
67675;SDS011;54456;48.436;10.028;2023-04-15T04:41:58;9.23;;;3.70;;
67675;SDS011;54456;48.436;10.028;2023-04-15T04:43:28;13.90;;;4.37;;
67675;SDS011;54456;48.436;10.028;2023-04-15T04:44:58;12.53;;;3.83;;
67675;SDS011;54456;48.436;10.028;2023-04-15T04:46:28;10.40;;;4.23;;
67675;SDS011;54456;48.436;10.028;2023-04-15T04:47:59;10.87;;;3.87;;
67675;SDS011;54456;48.436;10.028;2023-04-15T04:49:29;9.18;;;3.45;;
67675;SDS011;54456;48.436;10.028;2023-04-15T04:50:59;12.18;;;3.72;;
67675;SDS011;54456;48.436;10.028;2023-04-15T04:52:30;10.27;;;4.27;;
67675;SDS011;54456;48.436;10.028;2023-04-15T04:54:00;9.70;;;3.80;;
67675;SDS011;54456;48.436;10.028;2023-04-15T04:55:31;11.85;;;3.90;;
67675;SDS011;54456;48.436;10.028;2023-04-15T04:57:01;8.20;;;3.50;;
67675;SDS011;54456;48.436;10.028;2023-04-15T04:58:32;12.98;;;3.95;;
67675;SDS011;54456;48.436;10.028;2023-04-15T05:00:02;12.50;;;4.30;;
67675;SDS011;54456;48.436;10.028;2023-04-15T05:01:34;11.52;;;4.05;;
67675;SDS011;54456;48.436;10.028;2023-04-15T05:03:04;10.43;;;3.65;;
67675;SDS011;54456;48.436;10.028;2023-04-15T05:04:34;11.67;;;4.43;;
67675;SDS011;54456;48.436;10.028;2023-04-15T05:06:05;9.65;;;3.30;;
67675;SDS011;54456;48.436;10.028;2023-04-15T05:07:37;12.35;;;3.70;;
67675;SDS011;54456;48.436;10.028;2023-04-15T05:09:08;9.23;;;4.22;;
67675;SDS011;54456;48.436;10.028;2023-04-15T05:10:38;10.43;;;4.43;;
67675;SDS011;54456;48.436;10.028;2023-04-15T05:12:08;11.83;;;4.30;;
67675;SDS011;54456;48.436;10.028;2023-04-15T05:13:43;10.50;;;4.32;;
67675;SDS011;54456;48.436;10.028;2023-04-15T05:15:14;12.05;;;4.18;;
67675;SDS011;54456;48.436;10.028;2023-04-15T05:16:44;10.80;;;3.43;;
67675;SDS011;54456;48.436;10.028;2023-04-15T05:18:14;8.90;;;3.90;;
67675;SDS011;54456;48.436;10.028;2023-04-15T05:19:45;10.60;;;4.00;;
67675;SDS011;54456;48.436;10.028;2023-04-15T05:21:15;8.60;;;3.30;;
67675;SDS011;54456;48.436;10.028;2023-04-15T05:22:45;9.37;;;3.77;;
67675;SDS011;54456;48.436;10.028;2023-04-15T05:24:15;9.23;;;3.53;;
67675;SDS011;54456;48.436;10.028;2023-04-15T05:25:45;11.33;;;4.00;;
67675;SDS011;54456;48.436;10.028;2023-04-15T05:27:16;9.37;;;3.63;;
67675;SDS011;54456;48.436;10.028;2023-04-15T05:28:46;11.30;;;3.93;;
67675;SDS011;54456;48.436;10.028;2023-04-15T05:30:16;10.20;;;2.88;;
67675;SDS011;54456;48.436;10.028;2023-04-15T05:31:47;9.60;;;3.80;;
67675;SDS011;54456;48.436;10.028;2023-04-15T05:33:17;11.57;;;4.53;;
67675;SDS011;54456;48.436;10.028;2023-04-15T05:34:48;10.65;;;4.47;;
67675;SDS011;54456;48.436;10.028;2023-04-15T05:36:18;10.27;;;4.10;;
67675;SDS011;54456;48.436;10.028;2023-04-15T05:37:48;12.13;;;3.90;;
67675;SDS011;54456;48.436;10.028;2023-04-15T05:39:18;12.73;;;4.03;;
67675;SDS011;54456;48.436;10.028;2023-04-15T05:40:48;9.90;;;3.90;;
67675;SDS011;54456;48.436;10.028;2023-04-15T05:42:19;10.70;;;3.97;;
67675;SDS011;54456;48.436;10.028;2023-04-15T05:43:49;12.43;;;4.53;;
67675;SDS011;54456;48.436;10.028;2023-04-15T05:45:19;11.43;;;4.07;;
67675;SDS011;54456;48.436;10.028;2023-04-15T05:46:50;10.73;;;4.28;;
67675;SDS011;54456;48.436;10.028;2023-04-15T05:48:20;10.50;;;3.87;;
67675;SDS011;54456;48.436;10.028;2023-04-15T05:49:50;10.50;;;3.80;;
67675;SDS011;54456;48.436;10.028;2023-04-15T05:51:20;12.07;;;4.50;;
67675;SDS011;54456;48.436;10.028;2023-04-15T05:52:50;10.13;;;4.40;;
67675;SDS011;54456;48.436;10.028;2023-04-15T05:54:21;11.20;;;3.93;;
67675;SDS011;54456;48.436;10.028;2023-04-15T05:55:52;13.45;;;3.97;;
67675;SDS011;54456;48.436;10.028;2023-04-15T05:57:22;10.43;;;3.67;;
67675;SDS011;54456;48.436;10.028;2023-04-15T05:58:52;11.57;;;4.70;;
67675;SDS011;54456;48.436;10.028;2023-04-15T06:00:22;11.30;;;4.50;;
67675;SDS011;54456;48.436;10.028;2023-04-15T06:01:53;13.17;;;4.47;;
67675;SDS011;54456;48.436;10.028;2023-04-15T06:03:23;11.17;;;4.47;;
67675;SDS011;54456;48.436;10.028;2023-04-15T06:04:53;10.93;;;4.53;;
67675;SDS011;54456;48.436;10.028;2023-04-15T06:06:23;14.83;;;5.47;;
67675;SDS011;54456;48.436;10.028;2023-04-15T06:07:54;14.15;;;5.00;;
67675;SDS011;54456;48.436;10.028;2023-04-15T06:09:24;9.77;;;4.53;;
67675;SDS011;54456;48.436;10.028;2023-04-15T06:10:54;12.93;;;4.97;;
67675;SDS011;54456;48.436;10.028;2023-04-15T06:12:25;11.27;;;4.70;;
67675;SDS011;54456;48.436;10.028;2023-04-15T06:13:55;12.13;;;4.97;;
67675;SDS011;54456;48.436;10.028;2023-04-15T06:15:25;11.32;;;5.10;;
67675;SDS011;54456;48.436;10.028;2023-04-15T06:16:56;10.27;;;4.05;;
67675;SDS011;54456;48.436;10.028;2023-04-15T06:18:26;10.20;;;4.37;;
67675;SDS011;54456;48.436;10.028;2023-04-15T06:19:56;12.80;;;4.73;;
67675;SDS011;54456;48.436;10.028;2023-04-15T06:21:26;11.90;;;4.47;;
67675;SDS011;54456;48.436;10.028;2023-04-15T06:22:57;14.40;;;4.70;;
67675;SDS011;54456;48.436;10.028;2023-04-15T06:24:27;10.17;;;4.00;;
67675;SDS011;54456;48.436;10.028;2023-04-15T06:25:57;11.63;;;4.87;;
67675;SDS011;54456;48.436;10.028;2023-04-15T06:27:27;15.80;;;4.70;;
67675;SDS011;54456;48.436;10.028;2023-04-15T06:28:57;14.77;;;4.37;;
67675;SDS011;54456;48.436;10.028;2023-04-15T06:30:28;12.87;;;4.80;;
67675;SDS011;54456;48.436;10.028;2023-04-15T06:31:58;13.40;;;4.23;;
67675;SDS011;54456;48.436;10.028;2023-04-15T06:33:28;9.73;;;4.40;;
67675;SDS011;54456;48.436;10.028;2023-04-15T06:34:58;11.23;;;4.30;;
67675;SDS011;54456;48.436;10.028;2023-04-15T06:36:29;11.00;;;4.57;;
67675;SDS011;54456;48.436;10.028;2023-04-15T06:37:59;12.07;;;5.07;;
67675;SDS011;54456;48.436;10.028;2023-04-15T06:39:29;10.73;;;4.50;;
67675;SDS011;54456;48.436;10.028;2023-04-15T06:40:59;13.90;;;5.03;;
67675;SDS011;54456;48.436;10.028;2023-04-15T06:42:30;11.17;;;4.57;;
67675;SDS011;54456;48.436;10.028;2023-04-15T06:44:00;14.18;;;4.50;;
67675;SDS011;54456;48.436;10.028;2023-04-15T06:45:30;11.90;;;4.88;;
67675;SDS011;54456;48.436;10.028;2023-04-15T06:47:01;11.40;;;4.50;;
67675;SDS011;54456;48.436;10.028;2023-04-15T06:48:31;12.35;;;4.38;;
67675;SDS011;54456;48.436;10.028;2023-04-15T06:50:02;13.10;;;4.30;;
67675;SDS011;54456;48.436;10.028;2023-04-15T06:51:33;11.32;;;4.30;;
67675;SDS011;54456;48.436;10.028;2023-04-15T06:53:04;11.60;;;4.13;;
67675;SDS011;54456;48.436;10.028;2023-04-15T06:54:34;13.18;;;4.78;;
67675;SDS011;54456;48.436;10.028;2023-04-15T06:56:05;11.73;;;4.57;;
67675;SDS011;54456;48.436;10.028;2023-04-15T06:57:35;12.43;;;4.50;;
67675;SDS011;54456;48.436;10.028;2023-04-15T06:59:05;10.80;;;4.17;;
67675;SDS011;54456;48.436;10.028;2023-04-15T07:00:35;12.47;;;4.67;;
67675;SDS011;54456;48.436;10.028;2023-04-15T07:02:08;12.23;;;4.60;;
67675;SDS011;54456;48.436;10.028;2023-04-15T07:03:41;11.18;;;4.60;;
67675;SDS011;54456;48.436;10.028;2023-04-15T07:05:11;9.80;;;4.05;;
67675;SDS011;54456;48.436;10.028;2023-04-15T07:06:42;12.57;;;4.63;;
67675;SDS011;54456;48.436;10.028;2023-04-15T07:08:12;10.27;;;4.30;;
67675;SDS011;54456;48.436;10.028;2023-04-15T07:09:43;8.95;;;3.67;;
67675;SDS011;54456;48.436;10.028;2023-04-15T07:11:13;12.23;;;3.90;;
67675;SDS011;54456;48.436;10.028;2023-04-15T07:12:44;9.90;;;3.92;;
67675;SDS011;54456;48.436;10.028;2023-04-15T07:14:14;10.23;;;3.55;;
67675;SDS011;54456;48.436;10.028;2023-04-15T07:15:45;9.20;;;3.80;;
67675;SDS011;54456;48.436;10.028;2023-04-15T07:17:15;9.27;;;3.38;;
67675;SDS011;54456;48.436;10.028;2023-04-15T07:18:45;9.18;;;3.22;;
67675;SDS011;54456;48.436;10.028;2023-04-15T07:20:16;10.67;;;3.60;;
67675;SDS011;54456;48.436;10.028;2023-04-15T07:21:46;9.50;;;3.53;;
67675;SDS011;54456;48.436;10.028;2023-04-15T07:23:16;10.20;;;4.03;;
67675;SDS011;54456;48.436;10.028;2023-04-15T07:24:47;8.98;;;3.40;;
67675;SDS011;54456;48.436;10.028;2023-04-15T07:26:17;9.13;;;3.37;;
67675;SDS011;54456;48.436;10.028;2023-04-15T07:27:47;6.60;;;3.00;;
67675;SDS011;54456;48.436;10.028;2023-04-15T07:29:18;7.40;;;2.67;;
67675;SDS011;54456;48.436;10.028;2023-04-15T07:30:48;8.37;;;2.80;;
67675;SDS011;54456;48.436;10.028;2023-04-15T07:32:18;8.47;;;3.10;;
67675;SDS011;54456;48.436;10.028;2023-04-15T07:33:48;9.77;;;3.00;;
67675;SDS011;54456;48.436;10.028;2023-04-15T07:35:19;7.87;;;2.93;;
67675;SDS011;54456;48.436;10.028;2023-04-15T07:36:50;8.07;;;3.40;;
67675;SDS011;54456;48.436;10.028;2023-04-15T07:38:21;7.63;;;3.00;;
67675;SDS011;54456;48.436;10.028;2023-04-15T07:39:51;8.30;;;3.27;;
67675;SDS011;54456;48.436;10.028;2023-04-15T07:41:22;8.68;;;3.17;;
67675;SDS011;54456;48.436;10.028;2023-04-15T07:42:52;8.88;;;2.97;;
67675;SDS011;54456;48.436;10.028;2023-04-15T07:44:22;8.53;;;3.33;;
67675;SDS011;54456;48.436;10.028;2023-04-15T07:45:53;9.90;;;3.47;;
67675;SDS011;54456;48.436;10.028;2023-04-15T07:47:23;10.23;;;3.80;;
67675;SDS011;54456;48.436;10.028;2023-04-15T07:48:53;8.97;;;3.60;;
67675;SDS011;54456;48.436;10.028;2023-04-15T07:50:23;9.90;;;3.80;;
67675;SDS011;54456;48.436;10.028;2023-04-15T07:51:53;9.37;;;3.97;;
67675;SDS011;54456;48.436;10.028;2023-04-15T07:53:25;9.45;;;3.50;;
67675;SDS011;54456;48.436;10.028;2023-04-15T07:54:55;12.90;;;3.57;;
67675;SDS011;54456;48.436;10.028;2023-04-15T07:56:25;8.93;;;4.13;;
67675;SDS011;54456;48.436;10.028;2023-04-15T07:57:56;9.13;;;4.00;;
67675;SDS011;54456;48.436;10.028;2023-04-15T07:59:26;9.10;;;3.53;;
67675;SDS011;54456;48.436;10.028;2023-04-15T08:00:59;9.57;;;3.30;;
67675;SDS011;54456;48.436;10.028;2023-04-15T08:02:29;7.40;;;3.08;;
67675;SDS011;54456;48.436;10.028;2023-04-15T08:04:00;9.05;;;3.50;;
67675;SDS011;54456;48.436;10.028;2023-04-15T08:05:31;8.25;;;3.70;;
67675;SDS011;54456;48.436;10.028;2023-04-15T08:07:02;7.70;;;3.20;;
67675;SDS011;54456;48.436;10.028;2023-04-15T08:08:33;8.43;;;3.22;;
67675;SDS011;54456;48.436;10.028;2023-04-15T08:10:03;8.13;;;3.30;;
67675;SDS011;54456;48.436;10.028;2023-04-15T08:11:33;8.07;;;3.20;;
67675;SDS011;54456;48.436;10.028;2023-04-15T08:13:04;10.37;;;3.37;;
67675;SDS011;54456;48.436;10.028;2023-04-15T08:14:34;10.93;;;3.00;;
67675;SDS011;54456;48.436;10.028;2023-04-15T08:16:20;10.15;;;3.30;;
67675;SDS011;54456;48.436;10.028;2023-04-15T08:17:51;9.23;;;3.28;;
67675;SDS011;54456;48.436;10.028;2023-04-15T08:19:21;7.47;;;2.90;;
67675;SDS011;54456;48.436;10.028;2023-04-15T08:20:51;10.63;;;3.45;;
67675;SDS011;54456;48.436;10.028;2023-04-15T08:22:22;8.30;;;3.77;;
67675;SDS011;54456;48.436;10.028;2023-04-15T08:23:52;9.73;;;3.38;;
67675;SDS011;54456;48.436;10.028;2023-04-15T08:25:23;8.25;;;3.65;;
67675;SDS011;54456;48.436;10.028;2023-04-15T08:26:53;9.47;;;3.30;;
67675;SDS011;54456;48.436;10.028;2023-04-15T08:28:24;9.67;;;3.40;;
67675;SDS011;54456;48.436;10.028;2023-04-15T08:29:54;10.00;;;3.50;;
67675;SDS011;54456;48.436;10.028;2023-04-15T08:31:25;7.87;;;2.90;;
67675;SDS011;54456;48.436;10.028;2023-04-15T08:32:55;9.00;;;3.35;;
67675;SDS011;54456;48.436;10.028;2023-04-15T08:34:26;7.78;;;3.13;;
67675;SDS011;54456;48.436;10.028;2023-04-15T08:35:56;8.70;;;3.53;;
67675;SDS011;54456;48.436;10.028;2023-04-15T08:37:26;7.75;;;2.60;;
67675;SDS011;54456;48.436;10.028;2023-04-15T08:38:57;9.33;;;2.80;;
67675;SDS011;54456;48.436;10.028;2023-04-15T08:40:27;6.50;;;2.10;;
67675;SDS011;54456;48.436;10.028;2023-04-15T08:42:02;6.97;;;2.75;;
67675;SDS011;54456;48.436;10.028;2023-04-15T08:43:34;6.05;;;2.28;;
67675;SDS011;54456;48.436;10.028;2023-04-15T08:45:08;6.47;;;2.28;;
67675;SDS011;54456;48.436;10.028;2023-04-15T08:46:39;6.63;;;2.42;;
67675;SDS011;54456;48.436;10.028;2023-04-15T08:48:12;6.88;;;2.45;;
67675;SDS011;54456;48.436;10.028;2023-04-15T08:49:43;6.60;;;2.20;;
67675;SDS011;54456;48.436;10.028;2023-04-15T08:51:14;6.17;;;2.03;;
67675;SDS011;54456;48.436;10.028;2023-04-15T08:52:45;6.53;;;2.10;;
67675;SDS011;54456;48.436;10.028;2023-04-15T08:54:15;6.57;;;2.23;;
67675;SDS011;54456;48.436;10.028;2023-04-15T08:55:46;5.82;;;2.30;;
67675;SDS011;54456;48.436;10.028;2023-04-15T08:57:20;6.72;;;2.22;;
67675;SDS011;54456;48.436;10.028;2023-04-15T08:58:50;5.97;;;2.22;;
67675;SDS011;54456;48.436;10.028;2023-04-15T09:00:21;5.30;;;1.60;;
67675;SDS011;54456;48.436;10.028;2023-04-15T09:01:52;5.82;;;2.20;;
67675;SDS011;54456;48.436;10.028;2023-04-15T09:03:24;6.60;;;2.30;;
67675;SDS011;54456;48.436;10.028;2023-04-15T09:04:54;5.53;;;2.15;;
67675;SDS011;54456;48.436;10.028;2023-04-15T09:06:25;6.15;;;2.50;;
67675;SDS011;54456;48.436;10.028;2023-04-15T09:07:56;8.10;;;2.60;;
67675;SDS011;54456;48.436;10.028;2023-04-15T09:09:26;7.23;;;2.10;;
67675;SDS011;54456;48.436;10.028;2023-04-15T09:10:56;14.90;;;2.13;;
67675;SDS011;54456;48.436;10.028;2023-04-15T09:12:27;5.43;;;1.80;;
67675;SDS011;54456;48.436;10.028;2023-04-15T09:13:57;5.30;;;1.93;;
67675;SDS011;54456;48.436;10.028;2023-04-15T09:15:27;5.50;;;2.03;;
67675;SDS011;54456;48.436;10.028;2023-04-15T09:17:00;8.32;;;2.60;;
67675;SDS011;54456;48.436;10.028;2023-04-15T09:18:31;10.10;;;2.78;;
67675;SDS011;54456;48.436;10.028;2023-04-15T09:20:12;4.75;;;1.90;;
67675;SDS011;54456;48.436;10.028;2023-04-15T09:21:45;4.82;;;1.75;;
67675;SDS011;54456;48.436;10.028;2023-04-15T09:23:16;5.85;;;2.28;;
67675;SDS011;54456;48.436;10.028;2023-04-15T09:24:46;6.85;;;2.15;;
67675;SDS011;54456;48.436;10.028;2023-04-15T09:26:16;6.50;;;2.10;;
67675;SDS011;54456;48.436;10.028;2023-04-15T09:27:51;5.45;;;1.73;;
67675;SDS011;54456;48.436;10.028;2023-04-15T09:29:23;7.43;;;2.10;;
67675;SDS011;54456;48.436;10.028;2023-04-15T09:30:57;5.45;;;1.85;;
67675;SDS011;54456;48.436;10.028;2023-04-15T09:33:58;4.27;;;1.83;;
67675;SDS011;54456;48.436;10.028;2023-04-15T09:35:28;8.95;;;2.13;;
67675;SDS011;54456;48.436;10.028;2023-04-15T09:36:58;4.30;;;1.77;;
67675;SDS011;54456;48.436;10.028;2023-04-15T09:38:29;2.40;;;1.27;;
67675;SDS011;54456;48.436;10.028;2023-04-15T09:39:59;5.82;;;2.10;;
67675;SDS011;54456;48.436;10.028;2023-04-15T09:41:30;8.65;;;1.83;;
67675;SDS011;54456;48.436;10.028;2023-04-15T09:43:01;4.63;;;1.70;;
67675;SDS011;54456;48.436;10.028;2023-04-15T09:44:31;5.65;;;2.20;;
67675;SDS011;54456;48.436;10.028;2023-04-15T09:46:01;5.97;;;1.70;;
67675;SDS011;54456;48.436;10.028;2023-04-15T09:47:32;6.20;;;2.37;;
67675;SDS011;54456;48.436;10.028;2023-04-15T09:49:08;5.47;;;2.10;;
67675;SDS011;54456;48.436;10.028;2023-04-15T09:50:39;7.43;;;2.40;;
67675;SDS011;54456;48.436;10.028;2023-04-15T09:52:12;5.50;;;2.22;;
67675;SDS011;54456;48.436;10.028;2023-04-15T09:53:42;5.85;;;1.88;;
67675;SDS011;54456;48.436;10.028;2023-04-15T09:55:13;4.73;;;1.57;;
67675;SDS011;54456;48.436;10.028;2023-04-15T09:56:45;6.68;;;2.03;;
67675;SDS011;54456;48.436;10.028;2023-04-15T09:58:25;7.57;;;2.60;;
67675;SDS011;54456;48.436;10.028;2023-04-15T09:59:58;5.88;;;2.13;;
67675;SDS011;54456;48.436;10.028;2023-04-15T10:01:28;6.45;;;2.03;;
67675;SDS011;54456;48.436;10.028;2023-04-15T10:02:58;5.00;;;2.23;;
67675;SDS011;54456;48.436;10.028;2023-04-15T10:04:29;4.40;;;1.90;;
67675;SDS011;54456;48.436;10.028;2023-04-15T10:05:59;5.10;;;2.07;;
67675;SDS011;54456;48.436;10.028;2023-04-15T10:07:31;5.47;;;1.90;;
67675;SDS011;54456;48.436;10.028;2023-04-15T10:09:01;6.22;;;2.00;;
67675;SDS011;54456;48.436;10.028;2023-04-15T10:10:31;5.30;;;2.10;;
67675;SDS011;54456;48.436;10.028;2023-04-15T10:12:02;6.10;;;1.90;;
67675;SDS011;54456;48.436;10.028;2023-04-15T10:13:33;4.78;;;1.98;;
67675;SDS011;54456;48.436;10.028;2023-04-15T10:15:06;4.93;;;1.80;;
67675;SDS011;54456;48.436;10.028;2023-04-15T10:18:14;5.15;;;1.80;;
67675;SDS011;54456;48.436;10.028;2023-04-15T10:19:45;7.55;;;1.90;;
67675;SDS011;54456;48.436;10.028;2023-04-15T10:21:15;6.10;;;2.45;;
67675;SDS011;54456;48.436;10.028;2023-04-15T10:22:47;6.28;;;2.42;;
67675;SDS011;54456;48.436;10.028;2023-04-15T10:24:18;8.15;;;2.28;;
67675;SDS011;54456;48.436;10.028;2023-04-15T10:25:49;6.85;;;2.17;;
67675;SDS011;54456;48.436;10.028;2023-04-15T10:27:20;4.93;;;2.20;;
67675;SDS011;54456;48.436;10.028;2023-04-15T10:28:51;5.15;;;2.05;;
67675;SDS011;54456;48.436;10.028;2023-04-15T10:30:22;6.65;;;2.75;;
67675;SDS011;54456;48.436;10.028;2023-04-15T10:31:55;6.43;;;2.10;;
67675;SDS011;54456;48.436;10.028;2023-04-15T10:33:27;4.00;;;1.58;;
67675;SDS011;54456;48.436;10.028;2023-04-15T10:34:58;6.40;;;2.17;;
67675;SDS011;54456;48.436;10.028;2023-04-15T10:36:29;6.03;;;2.00;;
67675;SDS011;54456;48.436;10.028;2023-04-15T10:37:59;5.78;;;2.30;;
67675;SDS011;54456;48.436;10.028;2023-04-15T10:41:19;8.77;;;2.92;;
67675;SDS011;54456;48.436;10.028;2023-04-15T10:42:50;6.18;;;2.40;;
67675;SDS011;54456;48.436;10.028;2023-04-15T10:44:20;5.20;;;2.03;;
67675;SDS011;54456;48.436;10.028;2023-04-15T10:45:51;5.60;;;2.40;;
67675;SDS011;54456;48.436;10.028;2023-04-15T10:47:22;4.45;;;2.13;;
67675;SDS011;54456;48.436;10.028;2023-04-15T10:48:53;6.60;;;2.30;;
67675;SDS011;54456;48.436;10.028;2023-04-15T10:50:26;6.85;;;2.78;;
67675;SDS011;54456;48.436;10.028;2023-04-15T10:51:58;8.18;;;2.70;;
67675;SDS011;54456;48.436;10.028;2023-04-15T10:53:29;7.27;;;2.57;;
67675;SDS011;54456;48.436;10.028;2023-04-15T10:56:51;8.07;;;2.75;;
67675;SDS011;54456;48.436;10.028;2023-04-15T10:58:24;6.72;;;2.80;;
67675;SDS011;54456;48.436;10.028;2023-04-15T11:03:15;8.25;;;2.20;;
67675;SDS011;54456;48.436;10.028;2023-04-15T11:06:22;5.78;;;2.47;;
67675;SDS011;54456;48.436;10.028;2023-04-15T11:08:12;6.28;;;2.15;;
67675;SDS011;54456;48.436;10.028;2023-04-15T11:09:42;6.53;;;2.70;;
67675;SDS011;54456;48.436;10.028;2023-04-15T11:11:12;6.67;;;2.70;;
67675;SDS011;54456;48.436;10.028;2023-04-15T11:12:43;9.77;;;3.50;;
67675;SDS011;54456;48.436;10.028;2023-04-15T11:14:14;8.77;;;2.63;;
67675;SDS011;54456;48.436;10.028;2023-04-15T11:15:46;7.47;;;3.00;;
67675;SDS011;54456;48.436;10.028;2023-04-15T11:17:25;5.88;;;2.20;;
67675;SDS011;54456;48.436;10.028;2023-04-15T11:18:56;7.53;;;2.78;;
67675;SDS011;54456;48.436;10.028;2023-04-15T11:20:27;7.25;;;3.03;;
67675;SDS011;54456;48.436;10.028;2023-04-15T11:22:05;7.55;;;2.70;;
67675;SDS011;54456;48.436;10.028;2023-04-15T11:23:39;7.63;;;2.70;;
67675;SDS011;54456;48.436;10.028;2023-04-15T11:25:10;11.02;;;2.85;;
67675;SDS011;54456;48.436;10.028;2023-04-15T11:26:40;6.97;;;2.53;;
67675;SDS011;54456;48.436;10.028;2023-04-15T11:28:11;8.03;;;2.60;;
67675;SDS011;54456;48.436;10.028;2023-04-15T11:29:41;5.32;;;2.05;;
67675;SDS011;54456;48.436;10.028;2023-04-15T11:31:13;9.73;;;3.10;;
67675;SDS011;54456;48.436;10.028;2023-04-15T11:32:44;5.50;;;2.80;;
67675;SDS011;54456;48.436;10.028;2023-04-15T11:34:19;7.03;;;2.77;;
67675;SDS011;54456;48.436;10.028;2023-04-15T11:35:51;7.38;;;2.90;;
67675;SDS011;54456;48.436;10.028;2023-04-15T11:37:28;6.03;;;2.65;;
67675;SDS011;54456;48.436;10.028;2023-04-15T11:38:59;4.85;;;2.22;;
67675;SDS011;54456;48.436;10.028;2023-04-15T11:40:29;6.43;;;2.70;;
67675;SDS011;54456;48.436;10.028;2023-04-15T11:42:00;7.28;;;2.15;;
67675;SDS011;54456;48.436;10.028;2023-04-15T11:43:31;5.43;;;2.53;;
67675;SDS011;54456;48.436;10.028;2023-04-15T11:45:11;7.72;;;2.70;;
67675;SDS011;54456;48.436;10.028;2023-04-15T11:46:41;9.65;;;2.88;;
67675;SDS011;54456;48.436;10.028;2023-04-15T11:48:11;9.03;;;3.30;;
67675;SDS011;54456;48.436;10.028;2023-04-15T11:49:42;6.05;;;2.70;;
67675;SDS011;54456;48.436;10.028;2023-04-15T11:51:12;9.47;;;2.90;;
67675;SDS011;54456;48.436;10.028;2023-04-15T11:54:42;7.70;;;2.65;;
67675;SDS011;54456;48.436;10.028;2023-04-15T11:56:16;5.40;;;2.10;;
67675;SDS011;54456;48.436;10.028;2023-04-15T11:57:47;8.13;;;2.97;;
67675;SDS011;54456;48.436;10.028;2023-04-15T11:59:17;8.17;;;2.87;;
67675;SDS011;54456;48.436;10.028;2023-04-15T12:02:17;6.00;;;2.17;;
67675;SDS011;54456;48.436;10.028;2023-04-15T12:03:48;5.47;;;2.47;;
67675;SDS011;54456;48.436;10.028;2023-04-15T12:05:18;5.03;;;2.53;;
67675;SDS011;54456;48.436;10.028;2023-04-15T12:06:48;5.90;;;2.20;;
67675;SDS011;54456;48.436;10.028;2023-04-15T12:08:19;7.17;;;2.60;;
67675;SDS011;54456;48.436;10.028;2023-04-15T12:09:55;7.15;;;2.67;;
67675;SDS011;54456;48.436;10.028;2023-04-15T12:12:56;7.87;;;3.57;;
67675;SDS011;54456;48.436;10.028;2023-04-15T12:14:28;11.25;;;3.33;;
67675;SDS011;54456;48.436;10.028;2023-04-15T12:15:58;8.75;;;3.47;;
67675;SDS011;54456;48.436;10.028;2023-04-15T12:17:28;6.43;;;2.43;;
67675;SDS011;54456;48.436;10.028;2023-04-15T12:18:59;7.10;;;2.77;;
67675;SDS011;54456;48.436;10.028;2023-04-15T12:20:29;6.63;;;2.72;;
67675;SDS011;54456;48.436;10.028;2023-04-15T12:22:04;7.88;;;3.28;;
67675;SDS011;54456;48.436;10.028;2023-04-15T12:25:04;9.00;;;3.43;;
67675;SDS011;54456;48.436;10.028;2023-04-15T12:28:11;6.30;;;2.63;;
67675;SDS011;54456;48.436;10.028;2023-04-15T12:29:42;5.97;;;2.22;;
67675;SDS011;54456;48.436;10.028;2023-04-15T12:31:13;5.43;;;2.50;;
67675;SDS011;54456;48.436;10.028;2023-04-15T12:32:43;7.65;;;2.60;;